Time;durP1;ratioP1;P1;durP2;ratioP2;P2;SDS_P1;SDS_P2;PMS_P1;PMS_P2;Temp;Humidity;BMP_temperature;BMP_pressure;BME280_temperature;BME280_humidity;BME280_pressure;Samples;Min_cycle;Max_cycle;Signal;HPM_P1;HPM_P2
2022/09/07 00:01:07;;;;;;;4.97;4.47;;;;;;;18.67;100.00;101348.81;5011481;28;20204;-72
2022/09/07 00:03:33;;;;;;;5.60;4.40;;;;;;;18.88;100.00;101369.13;5012401;28;20656;-72
2022/09/07 00:06:03;;;;;;;3.90;3.60;;;;;;;18.79;100.00;101356.97;5014555;28;20501;-72
2022/09/07 00:08:28;;;;;;;4.30;3.90;;;;;;;18.86;100.00;101352.22;5015597;28;21470;-72
2022/09/07 00:10:56;;;;;;;4.67;4.20;;;;;;;19.13;100.00;101334.25;5013544;28;20486;-72
2022/09/07 00:13:24;;;;;;;6.43;4.30;;;;;;;19.13;100.00;101361.47;5009538;28;20275;-72
2022/09/07 00:15:50;;;;;;;5.67;3.87;;;;;;;18.90;100.00;101356.13;5015741;28;20613;-71
2022/09/07 00:18:16;;;;;;;6.30;4.57;;;;;;;19.05;100.00;101331.13;5015540;28;21624;-71
2022/09/07 00:20:41;;;;;;;5.57;4.50;;;;;;;19.42;100.00;101335.06;5017041;28;20185;-72
2022/09/07 00:23:07;;;;;;;5.93;4.70;;;;;;;19.34;100.00;101332.72;5013943;28;24661;-73
2022/09/07 00:25:37;;;;;;;5.80;4.30;;;;;;;19.37;100.00;101339.59;5015666;28;20279;-72
2022/09/07 00:28:03;;;;;;;5.07;4.57;;;;;;;19.17;100.00;101329.97;5013306;28;20259;-71
2022/09/07 00:30:29;;;;;;;5.30;4.80;;;;;;;19.32;100.00;101323.97;5015109;28;20478;-72
2022/09/07 00:32:54;;;;;;;4.87;4.37;;;;;;;19.15;100.00;101326.69;5014417;28;20664;-73
2022/09/07 00:35:19;;;;;;;4.77;4.10;;;;;;;19.20;100.00;101315.06;5012338;28;20657;-72
2022/09/07 00:37:45;;;;;;;5.87;4.87;;;;;;;19.25;100.00;101309.72;5017594;28;20212;-72
2022/09/07 00:40:10;;;;;;;5.73;5.03;;;;;;;19.32;100.00;101309.56;5015106;28;20188;-71
2022/09/07 00:42:36;;;;;;;5.83;5.07;;;;;;;19.13;100.00;101276.34;5013841;28;20188;-72
2022/09/07 00:45:08;;;;;;;5.30;4.80;;;;;;;19.27;100.00;101304.88;5017741;28;20200;-72
2022/09/07 00:47:54;;;;;;;7.20;4.33;;;;;;;19.15;100.00;101276.91;5018303;28;20214;-72
2022/09/07 00:50:28;;;;;;;4.77;4.37;;;;;;;19.17;100.00;101282.94;5015470;28;20472;-72
2022/09/07 00:53:00;;;;;;;6.50;4.23;;;;;;;19.18;100.00;101279.97;5020810;28;20813;-72
2022/09/07 00:55:26;;;;;;;7.33;5.20;;;;;;;18.43;100.00;101177.78;5017234;28;20501;-71
2022/09/07 00:57:54;;;;;;;10.40;5.40;;;;;;;19.02;100.00;101269.06;5014275;28;20518;-73
2022/09/07 01:00:20;;;;;;;5.83;5.27;;;;;;;18.96;100.00;101284.47;5017743;28;20443;-72
2022/09/07 01:02:49;;;;;;;5.10;4.70;;;;;;;18.78;100.00;101254.78;5015501;28;20451;-72
2022/09/07 01:05:28;;;;;;;7.90;4.83;;;;;;;18.98;100.00;101304.09;5017328;28;20489;-72
2022/09/07 01:07:56;;;;;;;6.50;5.17;;;;;;;18.74;100.00;101252.53;5018767;28;20494;-72
2022/09/07 01:10:26;;;;;;;5.97;4.90;;;;;;;18.66;100.00;101263.78;5016253;28;20481;-71
2022/09/07 01:12:52;;;;;;;5.00;4.60;;;;;;;19.09;100.00;101299.63;5018692;28;20439;-73
2022/09/07 01:15:20;;;;;;;6.00;4.70;;;;;;;18.82;100.00;101259.47;5020280;28;20810;-73
2022/09/07 01:18:21;;;;;;;6.60;5.20;;;;;;;19.02;100.00;101278.06;5018215;28;20612;-73
2022/09/07 01:21:08;;;;;;;5.60;5.00;;;;;;;19.14;100.00;101292.41;5016525;28;20974;-72
2022/09/07 01:24:07;;;;;;;7.03;5.53;;;;;;;19.14;100.00;101297.84;5021045;28;20513;-72
2022/09/07 01:26:52;;;;;;;7.27;4.53;;;;;;;18.87;100.00;101264.19;5015837;28;20457;-73
2022/09/07 01:29:26;;;;;;;5.33;4.83;;;;;;;19.02;100.00;101271.78;5015662;28;20467;-72
2022/09/07 01:32:09;;;;;;;11.13;5.83;;;;;;;19.02;100.00;101285.38;5014995;28;20471;-72
2022/09/07 01:34:36;;;;;;;5.97;4.50;;;;;;;18.81;100.00;101287.72;5014626;28;20447;-72
2022/09/07 01:37:04;;;;;;;5.13;4.57;;;;;;;18.42;100.00;101295.59;5017064;28;20459;-73
2022/09/07 01:39:46;;;;;;;6.30;5.70;;;;;;;18.17;100.00;101267.94;5012922;28;20448;-71
2022/09/07 01:42:14;;;;;;;6.00;5.50;;;;;;;18.30;100.00;101271.19;5019533;28;20449;-69
2022/09/07 01:44:45;;;;;;;7.03;5.33;;;;;;;18.57;100.00;101267.91;5018967;28;20447;-73
2022/09/07 01:47:28;;;;;;;9.30;4.90;;;;;;;18.76;100.00;101295.78;5019047;28;20435;-73
2022/09/07 01:49:57;;;;;;;7.53;5.53;;;;;;;18.39;100.00;101303.41;5015850;28;20439;-72
2022/09/07 01:52:55;;;;;;;6.13;5.43;;;;;;;18.51;100.00;101309.63;5020425;28;20964;-73
2022/09/07 01:55:33;;;;;;;8.20;5.67;;;;;;;18.83;100.00;101334.50;5019228;28;20455;-72
2022/09/07 01:58:12;;;;;;;5.47;4.97;;;;;;;18.62;100.00;101375.88;5019218;28;20458;-73
2022/09/07 02:00:41;;;;;;;8.00;6.00;;;;;;;17.07;100.00;101315.44;5018273;28;20521;-71
2022/09/07 02:03:14;;;;;;;24.97;7.30;;;;;;;16.44;100.00;101442.00;5017128;28;20453;-72
2022/09/07 02:05:57;;;;;;;10.30;7.13;;;;;;;16.57;100.00;101478.13;5015086;28;21046;-69
2022/09/07 02:08:46;;;;;;;11.07;7.53;;;;;;;17.07;100.00;101491.63;5015866;28;20470;-70
2022/09/07 02:11:35;;;;;;;11.30;7.40;;;;;;;16.93;100.00;101493.63;5015417;28;20462;-70
2022/09/07 02:14:10;;;;;;;13.03;7.70;;;;;;;17.07;100.00;101478.06;5014862;28;21258;-72
2022/09/07 02:17:01;;;;;;;11.70;8.00;;;;;;;16.66;100.00;101461.38;5017052;28;20460;-73
2022/09/07 02:19:32;;;;;;;10.80;7.67;;;;;;;17.26;100.00;101439.03;5009314;28;20453;-72
2022/09/07 02:22:06;;;;;;;10.13;7.70;;;;;;;17.38;100.00;101415.47;5014108;28;21539;-71
2022/09/07 02:24:38;;;;;;;8.13;7.27;;;;;;;17.40;100.00;101454.06;5015178;28;20462;-73
2022/09/07 02:27:14;;;;;;;7.13;6.40;;;;;;;17.46;100.00;101490.28;5020932;28;20978;-72
2022/09/07 02:29:42;;;;;;;9.73;7.30;;;;;;;17.33;100.00;101412.66;5019699;28;20458;-70
2022/09/07 02:32:07;;;;;;;10.20;8.27;;;;;;;17.84;100.00;101475.59;5014360;28;20944;-72
2022/09/07 02:34:33;;;;;;;10.90;7.60;;;;;;;17.67;100.00;101385.84;5018148;28;20501;-72
2022/09/07 02:37:00;;;;;;;11.57;7.20;;;;;;;17.89;100.00;101407.06;5017300;28;20200;-73
2022/09/07 02:39:26;;;;;;;8.60;6.30;;;;;;;17.69;100.00;101378.31;5018919;28;20196;-72
2022/09/07 02:41:52;;;;;;;9.10;7.70;;;;;;;17.14;100.00;101327.81;5014710;28;20447;-73
2022/09/07 02:44:19;;;;;;;8.60;7.30;;;;;;;17.52;100.00;101394.44;5015540;28;20556;-72
2022/09/07 02:47:17;;;;;;;11.13;7.70;;;;;;;17.66;100.00;101388.81;5020121;28;20216;-73
2022/09/07 02:50:16;;;;;;;9.93;7.80;;;;;;;17.93;100.00;101381.91;5013318;28;20454;-73
2022/09/07 02:52:53;;;;;;;8.63;7.83;;;;;;;18.00;100.00;101373.69;5014747;28;20535;-73
2022/09/07 02:55:43;;;;;;;10.77;8.90;;;;;;;17.79;100.00;101367.78;5016926;28;20457;-73
2022/09/07 02:58:27;;;;;;;11.10;8.77;;;;;;;17.80;100.00;101364.00;5017586;28;20876;-72
2022/09/07 03:01:01;;;;;;;9.07;8.17;;;;;;;17.75;100.00;101349.44;5010836;28;21108;-71
2022/09/07 03:03:29;;;;;;;12.93;8.33;;;;;;;17.93;100.00;101341.22;5015778;28;20953;-73
2022/09/07 03:06:00;;;;;;;10.30;8.40;;;;;;;17.87;100.00;101331.31;5017333;28;20446;-72
2022/09/07 03:08:32;;;;;;;13.60;8.20;;;;;;;17.56;100.00;101351.41;5013575;28;20533;-71
2022/09/07 03:10:58;;;;;;;8.23;7.17;;;;;;;17.05;100.00;101391.53;5032919;22;20593;-72
2022/09/07 03:13:27;;;;;;;10.97;7.27;;;;;;;17.07;100.00;101345.25;5011219;28;20439;-71
2022/09/07 03:15:52;;;;;;;8.40;7.50;;;;;;;17.17;100.00;101327.38;5013768;28;20488;-72
2022/09/07 03:18:18;;;;;;;8.40;7.20;;;;;;;17.71;100.00;101383.53;5014029;28;20852;-72
2022/09/07 03:20:44;;;;;;;9.47;8.17;;;;;;;17.84;100.00;101386.88;5017095;28;20204;-72
2022/09/07 03:23:09;;;;;;;9.87;8.10;;;;;;;17.73;100.00;101389.53;5015956;28;20192;-72
2022/09/07 03:25:35;;;;;;;11.97;8.47;;;;;;;17.08;100.00;101333.34;5017466;28;20185;-72
2022/09/07 03:28:00;;;;;;;12.33;9.10;;;;;;;16.99;100.00;101376.19;5015204;28;20578;-72
2022/09/07 03:30:26;;;;;;;10.70;9.20;;;;;;;16.94;100.00;101303.72;5015526;28;20216;-72
2022/09/07 03:32:51;;;;;;;8.60;7.80;;;;;;;17.45;100.00;101365.78;5015140;28;20192;-73
2022/09/07 03:35:17;;;;;;;9.70;8.50;;;;;;;16.87;100.00;101313.84;5018544;28;20185;-73
2022/09/07 03:37:42;;;;;;;9.60;8.60;;;;;;;17.62;100.00;101392.00;5017102;28;20212;-73
2022/09/07 03:40:11;;;;;;;9.87;8.87;;;;;;;17.50;100.00;101322.50;5015195;28;20211;-73
2022/09/07 03:42:37;;;;;;;11.87;9.90;;;;;;;17.39;100.00;101278.88;5012267;28;20181;-74
2022/09/07 03:45:04;;;;;;;10.10;8.90;;;;;;;17.73;100.00;101360.50;5010682;28;20441;-73
2022/09/07 03:47:29;;;;;;;10.80;9.70;;;;;;;17.70;100.00;101352.84;5009879;28;20475;-72
2022/09/07 03:49:54;;;;;;;11.17;9.40;;;;;;;17.66;100.00;101326.44;5012662;28;20901;-72
2022/09/07 03:52:20;;;;;;;14.27;9.03;;;;;;;17.39;100.00;101268.03;5009622;28;20313;-72
2022/09/07 03:54:45;;;;;;;10.67;9.57;;;;;;;17.39;100.00;101283.47;5016615;28;20689;-72
2022/09/07 03:57:12;;;;;;;10.70;9.43;;;;;;;17.65;100.00;101347.31;5008815;28;20188;-72
2022/09/07 03:59:37;;;;;;;10.87;8.30;;;;;;;17.26;100.00;101246.53;5013242;28;20208;-72
2022/09/07 04:02:03;;;;;;;10.00;8.33;;;;;;;17.75;100.00;101319.59;5009018;28;20443;-71
2022/09/07 04:04:29;;;;;;;10.00;8.73;;;;;;;17.74;100.00;101323.38;5010640;28;20203;-72
2022/09/07 04:06:54;;;;;;;10.50;9.40;;;;;;;17.26;100.00;101245.72;5012291;28;20188;-72
2022/09/07 04:09:20;;;;;;;11.60;9.40;;;;;;;17.32;100.00;101263.75;5016519;28;20443;-71
2022/09/07 04:11:45;;;;;;;10.03;9.13;;;;;;;17.29;100.00;101275.06;5011605;28;20299;-71
2022/09/07 04:14:11;;;;;;;10.97;9.73;;;;;;;16.75;100.00;101218.13;5012633;28;20620;-72
2022/09/07 04:16:37;;;;;;;11.73;8.83;;;;;;;16.90;100.00;101255.66;5011549;28;20649;-71
2022/09/07 04:19:03;;;;;;;9.90;8.90;;;;;;;17.57;100.00;101310.50;5008424;28;20181;-72
2022/09/07 04:21:30;;;;;;;11.60;9.43;;;;;;;17.65;100.00;101303.06;5009879;28;20436;-72
2022/09/07 04:23:56;;;;;;;11.27;9.10;;;;;;;17.07;100.00;101213.28;5012396;28;20934;-72
2022/09/07 04:26:28;;;;;;;10.10;9.10;;;;;;;17.57;100.00;101296.09;5017255;28;20469;-71
2022/09/07 04:28:54;;;;;;;10.60;9.60;;;;;;;17.81;100.00;101284.22;5013744;28;20498;-71
2022/09/07 04:31:20;;;;;;;9.37;8.37;;;;;;;17.81;100.00;101272.56;5012099;28;21093;-72
2022/09/07 04:33:47;;;;;;;11.20;10.10;;;;;;;17.66;100.00;101270.28;5014258;28;20195;-71
2022/09/07 04:36:14;;;;;;;10.37;9.40;;;;;;;17.01;100.00;101233.19;5014090;28;20951;-71
2022/09/07 04:38:39;;;;;;;8.27;7.47;;;;;;;16.89;100.00;101205.22;5014748;28;20470;-71
2022/09/07 04:41:09;;;;;;;9.53;8.53;;;;;;;17.47;100.00;101274.97;5016513;28;20830;-72
2022/09/07 04:43:36;;;;;;;8.80;8.00;;;;;;;17.10;100.00;101239.91;5014123;28;20738;-71
2022/09/07 04:46:17;;;;;;;9.23;8.33;;;;;;;17.09;100.00;101221.97;5014266;28;20441;-72
2022/09/07 04:48:43;;;;;;;9.20;8.40;;;;;;;17.46;100.00;101251.63;5014077;28;20643;-71
2022/09/07 04:51:09;;;;;;;9.17;8.20;;;;;;;17.40;100.00;101274.25;5011145;28;20837;-71
2022/09/07 04:53:36;;;;;;;9.80;8.43;;;;;;;17.22;100.00;101215.53;5013821;28;20203;-71
2022/09/07 04:56:03;;;;;;;9.63;8.70;;;;;;;16.92;100.00;101142.44;5016733;28;20457;-71
2022/09/07 04:58:28;;;;;;;9.20;8.30;;;;;;;17.62;100.00;101252.84;5016656;28;20951;-71
2022/09/07 05:00:54;;;;;;;9.73;8.93;;;;;;;17.07;100.00;101167.22;5008339;28;20459;-71
2022/09/07 05:03:19;;;;;;;8.73;7.97;;;;;;;16.90;100.00;101175.19;5013496;28;20193;-71
2022/09/07 05:05:45;;;;;;;13.63;9.03;;;;;;;17.35;100.00;101242.41;5008807;28;20711;-71
2022/09/07 05:08:12;;;;;;;10.80;9.70;;;;;;;17.65;100.00;101240.66;5012897;28;20193;-71
2022/09/07 05:10:37;;;;;;;9.43;8.47;;;;;;;17.54;100.00;101240.44;5012679;28;20216;-71
2022/09/07 05:13:03;;;;;;;9.97;9.07;;;;;;;17.23;100.00;101259.75;5012875;28;21059;-70
2022/09/07 05:15:29;;;;;;;10.00;9.07;;;;;;;16.64;100.00;101145.78;5010373;28;20207;-71
2022/09/07 05:17:56;;;;;;;9.60;8.60;;;;;;;17.08;100.00;101273.72;5014077;28;20223;-71
2022/09/07 05:20:22;;;;;;;9.87;8.83;;;;;;;16.33;100.00;101166.63;5012356;28;20462;-71
2022/09/07 05:22:47;;;;;;;10.17;9.17;;;;;;;17.30;100.00;101274.84;5015108;28;20448;-71
2022/09/07 05:25:13;;;;;;;10.83;9.83;;;;;;;16.88;100.00;101185.41;5014423;28;20187;-71
2022/09/07 05:27:39;;;;;;;10.70;9.80;;;;;;;17.61;100.00;101253.88;5017071;28;20199;-71
2022/09/07 05:30:04;;;;;;;10.67;9.67;;;;;;;17.53;100.00;101256.94;5017664;28;20209;-71
2022/09/07 05:32:30;;;;;;;10.13;9.13;;;;;;;17.21;100.00;101167.78;5017263;28;20216;-71
2022/09/07 05:34:55;;;;;;;11.23;10.10;;;;;;;17.46;100.00;101223.69;5018900;28;20231;-71
2022/09/07 05:37:21;;;;;;;11.07;9.80;;;;;;;16.50;100.00;101064.72;5015466;28;20649;-71
2022/09/07 05:39:47;;;;;;;10.07;9.17;;;;;;;17.42;100.00;101249.63;5017155;28;20673;-71
2022/09/07 05:42:12;;;;;;;10.90;9.90;;;;;;;17.52;100.00;101228.19;5020160;28;20176;-71
2022/09/07 05:44:38;;;;;;;10.50;9.60;;;;;;;17.29;100.00;101201.88;5016589;28;20923;-71
2022/09/07 05:47:03;;;;;;;11.23;10.13;;;;;;;17.16;100.00;101192.09;5019581;28;20191;-71
2022/09/07 05:49:29;;;;;;;10.57;9.37;;;;;;;17.14;100.00;101186.88;5015290;28;20201;-72
2022/09/07 05:51:55;;;;;;;10.63;9.60;;;;;;;17.77;100.00;101257.78;5017679;28;20301;-71
2022/09/07 05:54:20;;;;;;;10.20;9.20;;;;;;;16.93;100.00;101139.50;5020278;28;20827;-71
2022/09/07 05:56:46;;;;;;;10.33;9.40;;;;;;;17.26;100.00;101210.47;5021604;28;20234;-71
2022/09/07 05:59:11;;;;;;;9.27;8.47;;;;;;;17.13;100.00;101225.09;5019049;28;20235;-71
2022/09/07 06:01:37;;;;;;;9.60;8.70;;;;;;;17.39;100.00;101253.66;5017006;28;20192;-71
2022/09/07 06:04:02;;;;;;;10.83;9.83;;;;;;;16.48;100.00;101161.59;5008930;28;20192;-71
2022/09/07 06:06:28;;;;;;;9.30;8.40;;;;;;;17.15;100.00;101266.31;5014933;28;20188;-71
2022/09/07 06:08:53;;;;;;;11.30;10.23;;;;;;;17.56;100.00;101267.31;5012215;28;20656;-71
2022/09/07 06:11:24;;;;;;;10.90;9.80;;;;;;;17.75;100.00;101260.72;5016767;28;20231;-71
2022/09/07 06:13:50;;;;;;;11.30;10.13;;;;;;;17.72;100.00;101263.91;5013262;28;20290;-71
2022/09/07 06:16:17;;;;;;;10.60;9.60;;;;;;;17.59;100.00;101264.16;5014903;28;20447;-71
2022/09/07 06:18:47;;;;;;;10.33;9.40;;;;;;;17.54;100.00;101228.78;5015114;28;20442;-71
2022/09/07 06:21:21;;;;;;;9.57;8.57;;;;;;;17.75;100.00;101268.88;5008590;28;20459;-71
2022/09/07 06:23:48;;;;;;;9.70;8.80;;;;;;;17.68;100.00;101262.75;5013044;28;20451;-71
2022/09/07 06:26:15;;;;;;;10.07;9.17;;;;;;;17.42;100.00;101255.06;5015566;28;20455;-71
2022/09/07 06:28:45;;;;;;;9.83;8.83;;;;;;;17.36;100.00;101273.91;5018519;28;20444;-71
2022/09/07 06:31:13;;;;;;;11.07;10.07;;;;;;;17.58;100.00;101286.91;5017059;28;20479;-71
2022/09/07 06:33:40;;;;;;;10.93;9.67;;;;;;;16.94;100.00;101157.41;5019161;28;20481;-71
2022/09/07 06:36:10;;;;;;;13.10;9.90;;;;;;;17.78;100.00;101283.88;5018478;28;20506;-71
2022/09/07 06:38:36;;;;;;;9.17;8.37;;;;;;;17.08;100.00;101205.97;5021641;28;20802;-71
2022/09/07 06:41:07;;;;;;;10.23;9.23;;;;;;;17.46;100.00;101302.34;5014347;28;20451;-71
2022/09/07 06:43:33;;;;;;;11.30;10.20;;;;;;;17.60;100.00;101277.47;5019610;28;20817;-70
2022/09/07 06:45:59;;;;;;;9.60;8.70;;;;;;;17.66;100.00;101305.53;5019153;28;20581;-71
2022/09/07 06:48:25;;;;;;;10.30;9.40;;;;;;;17.90;100.00;101303.69;5017326;28;20446;-71
2022/09/07 06:51:14;;;;;;;9.87;8.93;;;;;;;17.62;100.00;101318.75;5013753;28;20477;-71
2022/09/07 06:53:40;;;;;;;10.60;9.53;;;;;;;16.88;100.00;101247.75;5010191;28;20470;-71
2022/09/07 06:56:08;;;;;;;9.70;8.80;;;;;;;17.55;100.00;101334.31;5017020;28;20427;-70
2022/09/07 06:58:34;;;;;;;9.30;8.40;;;;;;;17.69;100.00;101331.38;5017356;28;20239;-71
2022/09/07 07:01:05;;;;;;;11.43;8.80;;;;;;;17.24;100.00;101274.94;5015479;28;20458;-71
2022/09/07 07:03:31;;;;;;;9.70;8.80;;;;;;;17.69;100.00;101347.66;5008712;28;20436;-71
2022/09/07 07:05:56;;;;;;;9.87;8.90;;;;;;;17.77;100.00;101331.88;5014024;28;21421;-71
2022/09/07 07:08:24;;;;;;;9.17;8.30;;;;;;;18.12;100.00;101343.81;5015605;28;20177;-71
2022/09/07 07:10:50;;;;;;;10.87;9.47;;;;;;;18.11;100.00;101340.28;5015166;28;20829;-71
2022/09/07 07:13:17;;;;;;;10.17;9.23;;;;;;;17.86;100.00;101353.25;5017579;28;20446;-71
2022/09/07 07:15:43;;;;;;;9.10;8.30;;;;;;;17.96;100.00;101345.34;5014484;28;20553;-71
2022/09/07 07:18:09;;;;;;;8.87;8.07;;;;;;;17.67;100.00;101328.88;5017828;28;20453;-71
2022/09/07 07:20:36;;;;;;;10.40;9.40;;;;;;;17.86;100.00;101351.38;5015936;28;20462;-71
2022/09/07 07:23:02;;;;;;;10.30;9.50;;;;;;;18.04;100.00;101342.28;5014614;28;20442;-71
2022/09/07 07:25:27;;;;;;;10.13;8.97;;;;;;;17.78;100.00;101295.56;5012911;28;20439;-71
2022/09/07 07:27:52;;;;;;;11.10;10.00;;;;;;;17.79;100.00;101331.66;5013724;28;20207;-71
2022/09/07 07:30:19;;;;;;;11.37;10.30;;;;;;;18.09;100.00;101355.97;5018352;28;20778;-71
2022/09/07 07:32:45;;;;;;;11.00;10.10;;;;;;;17.71;100.00;101283.16;5020184;28;20669;-71
2022/09/07 07:35:12;;;;;;;11.27;10.10;;;;;;;17.90;100.00;101368.00;5014482;28;20442;-71
2022/09/07 07:37:37;;;;;;;11.30;10.20;;;;;;;17.96;100.00;101359.75;5014279;28;20961;-71
2022/09/07 07:40:05;;;;;;;13.03;10.27;;;;;;;17.54;100.00;101283.84;5004862;28;20455;-71
2022/09/07 07:42:31;;;;;;;16.73;11.77;;;;;;;17.16;100.00;101286.94;5010990;28;20556;-71
2022/09/07 07:44:57;;;;;;;10.83;9.73;;;;;;;17.97;100.00;101368.72;5014084;28;20450;-71
2022/09/07 07:47:22;;;;;;;13.30;10.50;;;;;;;17.26;100.00;101265.50;5018312;28;20441;-71
2022/09/07 07:49:47;;;;;;;10.77;9.83;;;;;;;17.71;100.00;101318.41;5011885;28;20196;-71
2022/09/07 07:52:15;;;;;;;12.90;9.10;;;;;;;17.95;100.00;101325.53;5014332;28;20638;-71
2022/09/07 07:54:41;;;;;;;10.73;9.70;;;;;;;18.24;100.00;101359.03;5017223;28;20564;-71
2022/09/07 07:57:06;;;;;;;10.50;9.60;;;;;;;18.17;100.00;101360.25;5016859;28;20436;-71
2022/09/07 07:59:33;;;;;;;11.70;9.23;;;;;;;17.90;100.00;101319.97;5016956;28;20209;-71
2022/09/07 08:02:03;;;;;;;10.13;9.03;;;;;;;17.86;100.00;101326.13;5016314;28;20211;-71
2022/09/07 08:04:29;;;;;;;12.67;10.50;;;;;;;17.56;100.00;101314.28;5011172;28;20523;-71
2022/09/07 08:06:55;;;;;;;9.77;8.80;;;;;;;17.88;100.00;101330.25;5014176;28;20439;-71
2022/09/07 08:09:21;;;;;;;9.70;8.83;;;;;;;17.04;100.00;101208.34;5010466;28;20861;-71
2022/09/07 08:11:47;;;;;;;9.10;8.20;;;;;;;18.26;100.00;101375.94;5014625;28;20332;-71
2022/09/07 08:14:15;;;;;;;10.07;9.17;;;;;;;17.77;100.00;101295.78;5017852;28;23200;-72
2022/09/07 08:16:44;;;;;;;10.83;9.70;;;;;;;18.04;100.00;101364.00;5004661;28;20436;-70
2022/09/07 08:19:10;;;;;;;9.50;8.60;;;;;;;17.75;100.00;101314.97;5011135;28;20454;-70
2022/09/07 08:21:35;;;;;;;10.10;9.20;;;;;;;18.17;100.00;101384.69;5014792;28;20443;-70
2022/09/07 08:24:02;;;;;;;9.63;8.83;;;;;;;17.54;100.00;101280.31;5010979;28;20195;-70
2022/09/07 08:26:27;;;;;;;10.43;9.37;;;;;;;18.26;100.00;101391.41;5012437;28;20184;-71
2022/09/07 08:28:53;;;;;;;12.10;10.10;;;;;;;17.77;100.00;101322.91;5011934;28;20439;-71
2022/09/07 08:31:19;;;;;;;10.83;9.83;;;;;;;17.60;100.00;101323.59;5006117;28;20219;-70
2022/09/07 08:33:44;;;;;;;10.70;9.37;;;;;;;18.25;100.00;101368.84;5015041;28;20446;-71
2022/09/07 08:36:19;;;;;;;9.80;8.90;;;;;;;18.57;100.00;101375.75;5015728;28;20207;-71
2022/09/07 08:38:45;;;;;;;10.30;9.30;;;;;;;18.21;100.00;101328.81;5013782;28;20208;-71
2022/09/07 08:41:22;;;;;;;9.47;8.60;;;;;;;18.77;100.00;101389.00;5013270;28;20802;-71
2022/09/07 08:44:00;;;;;;;11.47;10.37;;;;;;;18.83;100.00;101382.59;5012044;28;21390;-71
2022/09/07 08:46:39;;;;;;;12.00;9.20;;;;;;;18.61;100.00;101290.84;5013952;28;20490;-71
2022/09/07 08:49:10;;;;;;;10.50;9.43;;;;;;;18.72;100.00;101366.06;5013618;28;20450;-71
2022/09/07 08:51:44;;;;;;;10.70;9.60;;;;;;;18.98;100.00;101385.63;5015077;28;20462;-71
2022/09/07 08:54:12;;;;;;;11.03;10.07;;;;;;;18.74;100.00;101331.31;5013454;28;20427;-71
2022/09/07 08:56:43;;;;;;;9.80;9.00;;;;;;;19.07;100.00;101373.31;5013398;28;20440;-70
2022/09/07 08:59:32;;;;;;;10.63;8.40;;;;;;;19.47;100.00;101361.53;5007453;28;21141;-70
2022/09/07 09:01:57;;;;;;;12.57;11.33;;;;;;;19.35;100.00;101353.44;5010237;28;20436;-70
2022/09/07 09:04:28;;;;;;;12.53;11.20;;;;;;;18.84;100.00;101283.69;5013583;28;21004;-71
2022/09/07 09:07:15;;;;;;;11.80;10.30;;;;;;;19.39;100.00;101357.31;5016737;28;20203;-70
2022/09/07 09:09:47;;;;;;;13.33;12.10;;;;;;;19.25;100.00;101360.59;5015258;28;20462;-71
2022/09/07 09:12:21;;;;;;;11.43;9.87;;;;;;;19.75;100.00;101357.13;5025679;22;20499;-67
2022/09/07 09:14:56;;;;;;;12.80;11.60;;;;;;;19.17;100.00;101323.72;5013293;28;20489;-67
2022/09/07 09:17:27;;;;;;;12.20;10.80;;;;;;;19.63;100.00;101358.00;5016741;28;20530;-68
2022/09/07 09:20:22;;;;;;;13.27;11.97;;;;;;;19.74;100.00;101355.47;5017598;28;20938;-68
2022/09/07 09:22:48;;;;;;;13.07;11.70;;;;;;;19.84;100.00;101356.44;5018785;28;20521;-68
2022/09/07 09:25:14;;;;;;;13.57;12.37;;;;;;;19.22;100.00;101356.44;5016485;28;20455;-68
2022/09/07 09:27:40;;;;;;;15.83;14.33;;;;;;;18.81;100.00;101341.25;5009293;28;20447;-68
2022/09/07 09:30:13;;;;;;;16.33;14.73;;;;;;;18.76;100.00;101346.59;5012253;28;20848;-67
2022/09/07 09:32:41;;;;;;;15.67;14.17;;;;;;;19.04;100.00;101371.06;5014786;28;20217;-69
2022/09/07 09:35:14;;;;;;;14.70;13.50;;;;;;;18.94;100.00;101368.97;5017776;28;20935;-67
2022/09/07 09:37:42;;;;;;;14.20;12.83;;;;;;;18.98;100.00;101374.78;5006434;28;20454;-69
2022/09/07 09:40:34;;;;;;;14.10;12.60;;;;;;;19.32;100.00;101378.38;5011519;28;20450;-69
2022/09/07 09:43:18;;;;;;;15.30;13.70;;;;;;;19.09;100.00;101370.34;5005646;28;20443;-69
2022/09/07 09:45:47;;;;;;;14.77;12.33;;;;;;;19.07;100.00;101364.34;5005991;28;20438;-69
2022/09/07 09:48:20;;;;;;;12.70;11.50;;;;;;;19.27;100.00;101366.63;5010519;28;20823;-70
2022/09/07 09:50:50;;;;;;;14.70;11.57;;;;;;;19.03;100.00;101336.78;5021004;28;20483;-69
2022/09/07 09:53:28;;;;;;;14.40;13.00;;;;;;;18.98;100.00;101361.16;5019571;28;20535;-70
2022/09/07 09:55:54;;;;;;;11.40;10.40;;;;;;;19.08;100.00;101325.19;5018731;28;20439;-69
2022/09/07 09:58:35;;;;;;;26.33;13.23;;;;;;;18.90;100.00;101332.47;5016916;28;20938;-70
2022/09/07 10:01:06;;;;;;;14.80;13.27;;;;;;;19.17;100.00;101362.59;5015582;28;20455;-70
2022/09/07 10:03:33;;;;;;;13.83;12.33;;;;;;;19.30;100.00;101364.22;5019049;28;20443;-70
2022/09/07 10:06:06;;;;;;;11.80;10.70;;;;;;;19.12;100.00;101323.63;5017111;28;20438;-70
2022/09/07 10:08:33;;;;;;;12.40;11.30;;;;;;;19.24;100.00;101365.19;5018024;28;20932;-69
2022/09/07 10:11:02;;;;;;;11.90;10.70;;;;;;;19.07;100.00;101376.03;5017740;28;20566;-69
2022/09/07 10:13:34;;;;;;;12.70;11.40;;;;;;;19.00;100.00;101364.47;5019386;28;20455;-69
2022/09/07 10:16:05;;;;;;;17.83;11.50;;;;;;;19.01;100.00;101371.56;5015612;28;20934;-69
2022/09/07 10:18:39;;;;;;;12.30;11.07;;;;;;;18.65;100.00;101332.75;5012462;28;20503;-70
2022/09/07 10:21:24;;;;;;;15.27;12.63;;;;;;;18.72;100.00;101355.19;5017251;28;20458;-70
2022/09/07 10:23:53;;;;;;;12.37;11.17;;;;;;;18.69;100.00;101324.97;5018137;28;20435;-70
2022/09/07 10:26:28;;;;;;;12.93;11.03;;;;;;;19.09;100.00;101370.34;5016356;28;20440;-69
2022/09/07 10:29:05;;;;;;;14.10;12.67;;;;;;;19.15;100.00;101374.78;5013701;28;20435;-70
2022/09/07 10:31:33;;;;;;;13.87;11.93;;;;;;;19.09;100.00;101354.88;5022803;28;20471;-70
2022/09/07 10:34:05;;;;;;;14.30;11.80;;;;;;;19.43;100.00;101363.09;5017158;28;20468;-69
2022/09/07 10:36:34;;;;;;;13.67;11.37;;;;;;;19.33;100.00;101365.63;5019687;28;20458;-70
2022/09/07 10:39:03;;;;;;;12.67;11.53;;;;;;;19.23;100.00;101332.81;5013873;28;20539;-70
2022/09/07 10:42:03;;;;;;;12.13;10.93;;;;;;;19.77;100.00;101365.88;5014980;28;20463;-70
2022/09/07 10:44:38;;;;;;;12.43;11.33;;;;;;;19.84;100.00;101351.00;5021446;28;20450;-69
2022/09/07 10:47:12;;;;;;;10.33;9.33;;;;;;;19.08;100.00;101179.19;5019366;28;20438;-69
2022/09/07 10:50:10;;;;;;;12.47;11.20;;;;;;;19.81;100.00;101356.13;5018729;28;20443;-69
2022/09/07 10:52:38;;;;;;;13.33;11.80;;;;;;;20.22;100.00;101345.84;5009070;28;20542;-69
2022/09/07 10:55:17;;;;;;;12.93;11.67;;;;;;;20.28;100.00;101342.16;5028418;28;20908;-68
2022/09/07 10:57:51;;;;;;;12.17;11.03;;;;;;;20.27;100.00;101337.75;5026700;28;20443;-69
2022/09/07 11:00:19;;;;;;;13.40;12.00;;;;;;;20.12;100.00;101335.63;5018699;28;20446;-69
2022/09/07 11:03:13;;;;;;;13.33;12.13;;;;;;;20.17;100.00;101332.19;5018680;28;20443;-69
2022/09/07 11:06:04;;;;;;;16.60;14.47;;;;;;;20.13;100.00;101333.75;5028194;28;20439;-69
2022/09/07 11:08:50;;;;;;;15.07;13.60;;;;;;;20.36;100.00;101336.25;5013156;28;20440;-69
2022/09/07 11:11:30;;;;;;;14.50;12.33;;;;;;;20.06;100.00;101315.69;5013831;28;20988;-70
2022/09/07 11:14:03;;;;;;;13.73;12.40;;;;;;;20.04;100.00;101306.94;5011080;28;20439;-70
2022/09/07 11:16:36;;;;;;;13.00;11.80;;;;;;;20.12;100.00;101251.22;5019533;28;20944;-69
2022/09/07 11:19:10;;;;;;;13.30;11.40;;;;;;;20.28;100.00;101320.34;5025311;28;20816;-69
2022/09/07 11:21:42;;;;;;;12.50;11.30;;;;;;;19.88;100.00;101223.41;5011513;28;20523;-69
2022/09/07 11:24:25;;;;;;;14.90;11.60;;;;;;;20.34;100.00;101305.72;5012779;28;21344;-69